createdAt,value
2018-07-20T00:01:59.555Z,94.20
2018-07-20T00:04:28.020Z,94.20
2018-07-20T00:06:56.361Z,94.40
2018-07-20T00:09:24.715Z,94.50
2018-07-20T00:11:53.123Z,94.40
2018-07-20T00:14:21.575Z,94.60
2018-07-20T00:16:50.013Z,94.70
2018-07-20T00:19:18.414Z,94.60
2018-07-20T00:21:46.776Z,94.60
2018-07-20T00:24:15.112Z,94.80
2018-07-20T00:26:43.528Z,94.80
2018-07-20T00:29:11.975Z,94.90
2018-07-20T00:31:40.307Z,95.00
2018-07-20T00:34:08.704Z,94.90
2018-07-20T00:36:37.136Z,95.30
2018-07-20T00:39:07.806Z,95.30
2018-07-20T00:41:36.299Z,95.10
2018-07-20T00:44:04.719Z,95.20
2018-07-20T00:46:33.101Z,95.20
2018-07-20T00:49:01.462Z,95.10
2018-07-20T00:51:29.829Z,95.10
2018-07-20T00:53:58.199Z,95.20
2018-07-20T00:56:26.629Z,95.10
2018-07-20T00:58:55.109Z,95.00
2018-07-20T01:01:23.428Z,95.40
2018-07-20T01:03:51.806Z,95.40
2018-07-20T01:06:20.152Z,95.20
2018-07-20T01:08:48.518Z,95.20
2018-07-20T01:11:16.920Z,95.10
2018-07-20T01:13:45.309Z,95.40
2018-07-20T01:16:13.735Z,95.20
2018-07-20T01:18:42.098Z,95.30
2018-07-20T01:21:10.513Z,95.40
2018-07-20T01:23:38.916Z,95.40
2018-07-20T01:26:07.640Z,95.60
2018-07-20T01:28:35.946Z,95.70
2018-07-20T01:31:04.396Z,95.80
2018-07-20T01:33:32.797Z,96.00
2018-07-20T01:36:01.299Z,95.90
2018-07-20T01:38:29.744Z,96.00
2018-07-20T01:40:58.084Z,96.20
2018-07-20T01:43:26.523Z,96.30
2018-07-20T01:45:54.874Z,96.90
2018-07-20T01:48:23.201Z,96.80
2018-07-20T01:50:51.523Z,97.10
2018-07-20T01:53:19.916Z,97.40
2018-07-20T01:55:48.422Z,97.80
2018-07-20T01:58:16.822Z,97.90
2018-07-20T02:00:45.377Z,98.10
2018-07-20T02:03:13.729Z,98.10
2018-07-20T02:05:42.127Z,98.20
2018-07-20T02:08:10.519Z,98.40
2018-07-20T02:10:38.909Z,98.50
2018-07-20T02:13:07.341Z,98.60
2018-07-20T02:15:35.805Z,98.60
2018-07-20T02:18:04.259Z,98.70
2018-07-20T02:20:32.676Z,98.80
2018-07-20T02:23:01.143Z,99.00
2018-07-20T02:25:29.533Z,98.70
2018-07-20T02:27:57.853Z,98.90
2018-07-20T02:30:26.285Z,99.00
2018-07-20T02:32:54.632Z,99.10
2018-07-20T02:35:23.067Z,99.30
2018-07-20T02:37:51.438Z,99.60
2018-07-20T02:40:19.775Z,99.50
2018-07-20T02:42:48.167Z,99.90
2018-07-20T02:45:16.613Z,99.70
2018-07-20T02:47:44.991Z,99.70
2018-07-20T02:50:13.349Z,99.70
2018-07-20T02:52:41.724Z,99.80
2018-07-20T02:55:10.075Z,99.60
2018-07-20T02:57:38.350Z,99.80
2018-07-20T03:00:06.677Z,99.90
2018-07-20T03:02:35.711Z,99.90
2018-07-20T03:05:04.105Z,99.90
2018-07-20T03:07:32.414Z,99.90
2018-07-20T03:10:00.834Z,99.90
2018-07-20T03:12:29.115Z,99.90
2018-07-20T03:14:57.600Z,99.90
2018-07-20T03:17:26.020Z,99.90
2018-07-20T03:19:54.353Z,99.90
2018-07-20T03:22:22.664Z,99.90
2018-07-20T03:24:51.006Z,99.90
2018-07-20T03:27:19.373Z,99.90
2018-07-20T03:29:47.776Z,99.90
2018-07-20T03:32:16.130Z,99.90
2018-07-20T03:34:44.460Z,99.90
2018-07-20T03:37:12.778Z,99.90
2018-07-20T03:39:41.264Z,99.90
2018-07-20T03:42:09.640Z,99.90
2018-07-20T03:44:38.009Z,99.90
2018-07-20T03:47:06.360Z,99.90
2018-07-20T03:49:34.683Z,99.90
2018-07-20T03:52:03.099Z,99.90
2018-07-20T03:54:31.476Z,99.90
2018-07-20T03:56:59.887Z,99.90
2018-07-20T03:59:28.336Z,99.90
2018-07-20T04:01:56.692Z,99.90
2018-07-20T04:04:25.053Z,99.90
2018-07-20T04:06:53.412Z,99.90
2018-07-20T04:09:21.836Z,99.90
2018-07-20T04:11:50.118Z,99.90
2018-07-20T04:14:18.613Z,99.90
2018-07-20T04:16:47.095Z,99.90
2018-07-20T04:19:15.428Z,99.90
2018-07-20T04:21:43.865Z,99.90
2018-07-20T04:24:12.369Z,99.90
2018-07-20T04:26:40.845Z,99.90
2018-07-20T04:29:09.225Z,99.90
2018-07-20T04:31:37.637Z,99.90
2018-07-20T04:34:06.029Z,99.90
2018-07-20T04:36:34.340Z,99.90
2018-07-20T04:39:02.646Z,99.90
2018-07-20T04:41:30.896Z,99.90
2018-07-20T04:43:59.244Z,99.90
2018-07-20T04:46:27.513Z,99.90
2018-07-20T04:48:55.812Z,99.90
2018-07-20T04:51:24.137Z,99.90
2018-07-20T04:53:52.534Z,99.90
2018-07-20T04:56:20.906Z,99.90
2018-07-20T04:58:49.302Z,99.90
2018-07-20T05:01:17.661Z,99.90
2018-07-20T05:03:46.103Z,99.90
2018-07-20T05:06:14.473Z,99.90
2018-07-20T05:08:42.828Z,99.90
2018-07-20T05:11:11.223Z,99.90
2018-07-20T05:13:39.647Z,99.90
2018-07-20T05:16:07.967Z,99.80
2018-07-20T05:18:36.330Z,99.80
2018-07-20T05:21:04.896Z,99.90
2018-07-20T05:23:33.455Z,98.60
2018-07-20T05:26:01.755Z,96.80
2018-07-20T05:28:30.095Z,95.30
2018-07-20T05:30:58.563Z,93.60
2018-07-20T05:33:26.865Z,92.70
2018-07-20T05:35:55.258Z,92.30
2018-07-20T05:38:23.637Z,91.50
2018-07-20T05:40:52.093Z,90.50
2018-07-20T05:43:20.478Z,90.30
2018-07-20T05:45:49.048Z,90.00
2018-07-20T05:48:17.437Z,87.90
2018-07-20T05:50:45.945Z,86.90
2018-07-20T05:53:14.352Z,86.20
2018-07-20T05:55:42.651Z,86.00
2018-07-20T05:58:10.979Z,84.50
2018-07-20T06:00:39.331Z,83.80
2018-07-20T06:03:07.881Z,81.50
2018-07-20T06:05:36.326Z,80.70
2018-07-20T06:08:04.623Z,81.30
2018-07-20T06:10:33.006Z,81.30
2018-07-20T06:13:01.411Z,80.80
2018-07-20T06:15:29.843Z,81.20
2018-07-20T06:17:58.347Z,80.00
2018-07-20T06:20:26.677Z,80.70
2018-07-20T06:22:54.964Z,80.00
2018-07-20T06:25:23.374Z,78.40
2018-07-20T06:27:51.654Z,77.00
2018-07-20T06:30:20.006Z,76.30
2018-07-20T06:32:48.378Z,76.00
2018-07-20T06:35:16.700Z,75.90
2018-07-20T06:37:45.099Z,75.10
2018-07-20T06:40:13.476Z,75.30
2018-07-20T06:42:41.830Z,74.90
2018-07-20T06:45:10.244Z,73.40
2018-07-20T06:47:38.545Z,75.00
2018-07-20T06:50:12.359Z,75.80
2018-07-20T06:52:40.766Z,75.40
2018-07-20T06:55:09.209Z,74.10
2018-07-20T06:57:37.687Z,74.80
2018-07-20T07:00:06.579Z,73.50
2018-07-20T07:02:35.336Z,74.40
2018-07-20T07:05:04.152Z,71.40
2018-07-20T07:07:32.606Z,70.50
2018-07-20T07:10:01.001Z,70.50
2018-07-20T07:12:29.408Z,71.40
2018-07-20T07:14:57.960Z,70.90
2018-07-20T07:17:26.263Z,70.90
2018-07-20T07:19:54.715Z,70.20
2018-07-20T07:22:23.112Z,71.10
2018-07-20T07:24:51.513Z,69.90
2018-07-20T07:27:19.921Z,72.70
2018-07-20T07:29:48.388Z,71.00
2018-07-20T07:32:16.818Z,71.60
2018-07-20T07:34:45.299Z,70.40
2018-07-20T07:37:13.752Z,71.00
2018-07-20T07:39:42.251Z,69.40
2018-07-20T07:42:10.618Z,68.90
2018-07-20T07:44:38.989Z,69.90
2018-07-20T07:47:07.377Z,67.70
2018-07-20T07:49:35.762Z,68.20
2018-07-20T07:52:04.128Z,68.10
2018-07-20T07:54:32.565Z,68.30
2018-07-20T07:57:00.893Z,67.20
2018-07-20T07:59:29.274Z,65.70
2018-07-20T08:01:57.752Z,65.10
2018-07-20T08:04:26.131Z,64.00
2018-07-20T08:06:54.564Z,65.40
2018-07-20T08:09:23.025Z,64.40
2018-07-20T08:11:51.557Z,64.90
2018-07-20T08:14:20.030Z,64.90
2018-07-20T08:16:48.406Z,62.90
2018-07-20T08:19:16.790Z,64.20
2018-07-20T08:21:45.117Z,63.60
2018-07-20T08:24:13.527Z,63.60
2018-07-20T08:26:41.881Z,62.20
2018-07-20T08:29:10.298Z,62.60
2018-07-20T08:31:38.717Z,61.00
2018-07-20T08:34:07.164Z,60.80
2018-07-20T08:36:35.512Z,63.90
2018-07-20T08:39:06.127Z,64.30
2018-07-20T08:41:35.147Z,63.70
2018-07-20T08:44:03.625Z,63.90
2018-07-20T08:46:32.846Z,63.60
2018-07-20T08:49:01.218Z,63.60
2018-07-20T08:51:29.647Z,62.90
2018-07-20T08:53:58.120Z,60.70
2018-07-20T08:56:26.435Z,61.60
2018-07-20T08:58:55.334Z,61.90
2018-07-20T09:01:23.674Z,62.40
2018-07-20T09:03:52.195Z,63.50
2018-07-20T09:06:20.658Z,61.60
2018-07-20T09:08:49.046Z,61.20
2018-07-20T09:11:17.411Z,62.20
2018-07-20T09:13:45.888Z,61.00
2018-07-20T09:16:14.187Z,62.10
2018-07-20T09:18:42.906Z,62.30
2018-07-20T09:21:13.534Z,63.70
2018-07-20T09:23:41.988Z,61.40
2018-07-20T09:26:10.398Z,60.00
2018-07-20T09:28:39.008Z,58.00
2018-07-20T09:31:07.606Z,58.50
2018-07-20T09:33:36.014Z,58.20
2018-07-20T09:36:04.347Z,60.80
2018-07-20T09:38:32.711Z,58.40
2018-07-20T09:41:01.106Z,57.70
2018-07-20T09:43:29.503Z,58.60
2018-07-20T09:45:57.883Z,58.30
2018-07-20T09:48:26.281Z,58.40
2018-07-20T09:50:54.696Z,59.20
2018-07-20T09:53:23.028Z,59.10
2018-07-20T09:55:51.454Z,57.90
2018-07-20T09:58:19.836Z,57.80
2018-07-20T10:00:49.208Z,58.10
2018-07-20T10:03:18.344Z,57.70
2018-07-20T10:05:46.989Z,57.80
2018-07-20T10:08:15.603Z,57.90
2018-07-20T10:10:44.153Z,58.50
2018-07-20T10:13:12.529Z,58.40
2018-07-20T10:15:40.974Z,57.30
2018-07-20T10:18:09.275Z,56.40
2018-07-20T10:20:37.652Z,57.00
2018-07-20T10:23:06.113Z,58.80
2018-07-20T10:25:34.486Z,57.60
2018-07-20T10:28:03.221Z,56.80
2018-07-20T10:30:31.978Z,56.60
2018-07-20T10:33:00.313Z,56.60
2018-07-20T10:35:28.670Z,56.50
2018-07-20T10:37:57.610Z,56.70
2018-07-20T10:40:27.382Z,56.90
2018-07-20T10:42:57.561Z,56.20
2018-07-20T10:45:26.341Z,55.50
2018-07-20T10:47:54.840Z,55.30
2018-07-20T10:50:23.231Z,55.30
2018-07-20T10:52:51.625Z,55.50
2018-07-20T10:55:20.362Z,56.00
2018-07-20T10:57:49.154Z,55.40
2018-07-20T11:00:17.508Z,57.20
2018-07-20T11:02:46.305Z,55.50
2018-07-20T11:05:15.703Z,56.60
2018-07-20T11:07:44.091Z,56.60
2018-07-20T11:10:12.421Z,54.10
2018-07-20T11:12:40.861Z,57.10
2018-07-20T11:15:09.213Z,54.90
2018-07-20T11:17:37.515Z,54.80
2018-07-20T11:20:05.894Z,55.80
2018-07-20T11:22:34.373Z,56.20
2018-07-20T11:25:02.849Z,55.40
2018-07-20T11:27:31.242Z,55.50
2018-07-20T11:29:59.635Z,54.90
2018-07-20T11:32:28.055Z,55.90
2018-07-20T11:34:56.400Z,56.70
2018-07-20T11:37:24.782Z,56.90
2018-07-20T11:39:53.170Z,57.80
2018-07-20T11:42:21.647Z,55.70
2018-07-20T11:44:50.055Z,55.70
2018-07-20T11:47:18.400Z,56.40
2018-07-20T11:49:46.969Z,56.70
2018-07-20T11:52:15.397Z,56.20
2018-07-20T11:54:43.767Z,56.90
2018-07-20T11:57:12.232Z,55.10
2018-07-20T11:59:40.625Z,55.40
2018-07-20T12:02:08.955Z,56.50
2018-07-20T12:04:37.315Z,56.90
2018-07-20T12:07:05.722Z,55.70
2018-07-20T12:09:34.155Z,55.90
2018-07-20T12:12:02.697Z,56.10
2018-07-20T12:14:31.622Z,57.30
2018-07-20T12:17:00.077Z,56.30
2018-07-20T12:19:28.449Z,56.60
2018-07-20T12:21:56.901Z,55.10
2018-07-20T12:24:25.342Z,56.20
2018-07-20T12:26:53.894Z,55.50
2018-07-20T12:29:23.140Z,57.70
2018-07-20T12:31:51.515Z,55.20
2018-07-20T12:34:19.860Z,55.40
2018-07-20T12:36:48.182Z,55.70
2018-07-20T12:39:16.569Z,56.70
2018-07-20T12:41:44.974Z,57.50
2018-07-20T12:44:13.329Z,56.70
2018-07-20T12:46:41.844Z,57.50
2018-07-20T12:49:10.220Z,56.80
2018-07-20T12:51:38.683Z,56.40
2018-07-20T12:54:07.085Z,56.20
2018-07-20T12:56:35.430Z,56.00
2018-07-20T12:59:03.816Z,56.80
2018-07-20T13:01:32.249Z,56.20
2018-07-20T13:04:00.670Z,55.90
2018-07-20T13:06:29.298Z,57.20
2018-07-20T13:08:57.722Z,56.30
2018-07-20T13:11:26.240Z,58.20
2018-07-20T13:13:54.859Z,57.40
2018-07-20T13:16:23.216Z,56.90
2018-07-20T13:18:52.078Z,57.10
2018-07-20T13:21:20.435Z,56.60
2018-07-20T13:23:48.899Z,56.90
2018-07-20T13:26:17.200Z,57.30
2018-07-20T13:28:45.615Z,57.70
2018-07-20T13:31:14.054Z,57.80
2018-07-20T13:33:42.500Z,57.30
2018-07-20T13:36:11.132Z,58.30
2018-07-20T13:38:39.566Z,58.50
2018-07-20T13:41:08.043Z,59.10
2018-07-20T13:43:36.416Z,59.00
2018-07-20T13:46:04.858Z,58.20
2018-07-20T13:48:33.383Z,58.50
2018-07-20T13:51:01.862Z,58.00
2018-07-20T13:53:31.197Z,57.00
2018-07-20T13:55:59.796Z,57.50
2018-07-20T13:58:28.286Z,58.40
2018-07-20T14:00:56.761Z,58.20
2018-07-20T14:03:25.313Z,58.10
2018-07-20T14:05:53.735Z,58.30
2018-07-20T14:08:22.157Z,58.80
2018-07-20T14:10:50.503Z,59.30
2018-07-20T14:13:18.873Z,59.30
2018-07-20T14:15:47.314Z,58.80
2018-07-20T14:18:15.661Z,58.70
2018-07-20T14:20:44.124Z,59.00
2018-07-20T14:23:12.565Z,58.30
2018-07-20T14:25:40.961Z,59.60
2018-07-20T14:28:09.339Z,60.10
2018-07-20T14:30:38.258Z,60.00
2018-07-20T14:33:06.752Z,62.10
2018-07-20T14:35:35.214Z,60.90
2018-07-20T14:38:03.674Z,59.60
2018-07-20T14:40:32.002Z,60.00
2018-07-20T14:43:00.418Z,61.10
2018-07-20T14:45:28.810Z,60.60
2018-07-20T14:47:57.227Z,63.50
2018-07-20T14:50:25.603Z,59.80
2018-07-20T14:52:53.951Z,60.40
2018-07-20T14:55:22.356Z,61.70
2018-07-20T14:57:50.736Z,60.20
2018-07-20T15:00:19.140Z,60.30
2018-07-20T15:02:47.473Z,61.60
2018-07-20T15:05:15.791Z,61.90
2018-07-20T15:07:44.118Z,61.40
2018-07-20T15:10:12.952Z,62.50
2018-07-20T15:12:41.309Z,61.60
2018-07-20T15:15:09.861Z,61.70
2018-07-20T15:17:38.658Z,62.10
2018-07-20T15:20:07.841Z,65.40
2018-07-20T15:22:36.164Z,62.80
2018-07-20T15:25:04.699Z,63.00
2018-07-20T15:27:33.331Z,62.40
2018-07-20T15:30:01.913Z,60.70
2018-07-20T15:32:31.675Z,59.60
2018-07-20T15:35:00.117Z,60.60
2018-07-20T15:37:28.507Z,59.90
2018-07-20T15:39:56.895Z,60.60
2018-07-20T15:42:25.304Z,60.90
2018-07-20T15:44:54.650Z,60.70
2018-07-20T15:47:23.529Z,61.10
2018-07-20T15:49:51.795Z,60.80
2018-07-20T15:54:49.571Z,60.40
2018-07-20T15:57:18.057Z,61.10
2018-07-20T15:59:46.568Z,61.00
2018-07-20T16:02:14.881Z,60.50
2018-07-20T16:04:43.351Z,60.60
2018-07-20T16:07:12.172Z,60.50
2018-07-20T16:09:40.833Z,61.60
2018-07-20T16:12:09.735Z,60.70
2018-07-20T16:14:38.143Z,60.50
2018-07-20T16:17:06.564Z,60.70
2018-07-20T16:19:34.864Z,60.90
2018-07-20T16:22:03.284Z,61.20
2018-07-20T16:24:31.625Z,60.70
2018-07-20T16:26:59.989Z,61.60
2018-07-20T16:29:28.439Z,61.90
2018-07-20T16:31:56.817Z,61.80
2018-07-20T16:34:25.226Z,60.70
2018-07-20T16:36:53.577Z,61.20
2018-07-20T16:39:22.106Z,60.50
2018-07-20T16:41:50.521Z,62.00
2018-07-20T16:44:18.857Z,61.00
2018-07-20T16:46:53.867Z,61.00
2018-07-20T16:49:22.501Z,60.80
2018-07-20T16:51:51.002Z,61.10
2018-07-20T16:54:19.431Z,60.70
2018-07-20T16:56:47.805Z,61.40
2018-07-20T16:59:16.228Z,62.20
2018-07-20T17:01:44.530Z,61.80
2018-07-20T17:04:12.931Z,61.00
2018-07-20T17:06:41.342Z,61.60
2018-07-20T17:09:11.219Z,61.50
2018-07-20T17:11:39.701Z,62.50
2018-07-20T17:14:08.155Z,61.20
2018-07-20T17:16:36.528Z,61.40
2018-07-20T17:19:04.866Z,62.00
2018-07-20T17:21:33.226Z,62.10
2018-07-20T17:24:01.572Z,62.30
2018-07-20T17:26:29.928Z,62.70
2018-07-20T17:28:58.354Z,63.70
2018-07-20T17:31:26.764Z,63.80
2018-07-20T17:33:55.147Z,62.60
2018-07-20T17:36:23.559Z,62.80
2018-07-20T17:38:51.958Z,63.40
2018-07-20T17:41:20.422Z,63.60
2018-07-20T17:43:48.849Z,63.30
2018-07-20T17:46:17.335Z,63.80
2018-07-20T17:48:45.767Z,63.20
2018-07-20T17:51:14.141Z,64.20
2018-07-20T17:53:42.589Z,63.80
2018-07-20T17:56:10.966Z,63.10
2018-07-20T17:58:39.306Z,63.40
2018-07-20T18:01:07.703Z,63.70
2018-07-20T18:03:36.126Z,63.80
2018-07-20T18:06:04.838Z,63.90
2018-07-20T18:08:33.170Z,65.40
2018-07-20T18:11:01.627Z,64.50
2018-07-20T18:13:30.369Z,66.00
2018-07-20T18:15:58.685Z,65.90
2018-07-20T18:18:27.006Z,64.90
2018-07-20T18:20:55.404Z,64.30
2018-07-20T18:23:23.775Z,64.80
2018-07-20T18:25:52.127Z,64.40
2018-07-20T18:28:20.529Z,64.20
2018-07-20T18:30:49.147Z,65.20
2018-07-20T18:33:17.437Z,65.00
2018-07-20T18:35:45.845Z,64.80
2018-07-20T18:38:14.265Z,65.30
2018-07-20T18:40:42.915Z,65.40
2018-07-20T18:43:11.270Z,65.80
2018-07-20T18:45:39.659Z,67.60
2018-07-20T18:48:08.107Z,68.10
2018-07-20T18:50:36.560Z,69.40
2018-07-20T18:53:04.949Z,72.20
2018-07-20T18:55:33.455Z,71.10
2018-07-20T18:58:01.770Z,69.60
2018-07-20T19:00:30.177Z,70.90
2018-07-20T19:02:58.636Z,72.30
2018-07-20T19:05:27.023Z,71.90
2018-07-20T19:07:55.437Z,68.40
2018-07-20T19:10:23.997Z,68.40
2018-07-20T19:12:52.586Z,69.30
2018-07-20T19:15:21.263Z,70.70
2018-07-20T19:17:49.684Z,71.70
2018-07-20T19:20:18.095Z,74.80
2018-07-20T19:22:46.580Z,73.70
2018-07-20T19:25:14.956Z,70.40
2018-07-20T19:27:43.411Z,72.60
2018-07-20T19:30:11.811Z,74.70
2018-07-20T19:32:40.348Z,74.60
2018-07-20T19:35:08.993Z,75.10
2018-07-20T19:37:37.487Z,71.90
2018-07-20T19:40:05.965Z,77.60
2018-07-20T19:42:34.422Z,77.40
2018-07-20T19:45:03.139Z,77.80
2018-07-20T19:47:31.868Z,77.00
2018-07-20T19:50:00.403Z,78.30
2018-07-20T19:52:29.276Z,78.30
2018-07-20T19:54:57.649Z,78.20
2018-07-20T19:57:28.016Z,74.80
2018-07-20T19:59:56.419Z,76.00
2018-07-20T20:02:24.747Z,73.70
2018-07-20T20:04:53.115Z,73.30
2018-07-20T20:07:21.515Z,73.50
2018-07-20T20:09:49.859Z,74.10
2018-07-20T20:12:18.215Z,74.50
2018-07-20T20:14:46.826Z,75.30
2018-07-20T20:17:15.353Z,76.20
2018-07-20T20:19:43.732Z,76.50
2018-07-20T20:22:12.127Z,77.10
2018-07-20T20:24:40.619Z,78.60
2018-07-20T20:27:09.614Z,80.20
2018-07-20T20:29:38.074Z,81.50
2018-07-20T20:32:06.863Z,82.00
2018-07-20T20:34:35.261Z,82.30
2018-07-20T20:37:03.733Z,84.10
2018-07-20T20:39:32.319Z,86.20
2018-07-20T20:42:00.627Z,86.10
2018-07-20T20:44:28.961Z,88.40
2018-07-20T20:46:57.476Z,91.40
2018-07-20T20:49:25.890Z,92.00
2018-07-20T20:51:54.379Z,92.80
2018-07-20T20:54:22.766Z,94.00
2018-07-20T20:56:51.198Z,95.40
2018-07-20T20:59:19.657Z,97.10
2018-07-20T21:01:48.012Z,99.50
2018-07-20T21:04:16.615Z,99.90
2018-07-20T21:06:44.993Z,99.90
2018-07-20T21:09:13.354Z,99.90
2018-07-20T21:11:41.740Z,99.90
2018-07-20T21:14:10.150Z,99.90
2018-07-20T21:16:38.565Z,99.90
2018-07-20T21:19:06.859Z,99.90
2018-07-20T21:21:35.364Z,99.90
2018-07-20T21:24:03.726Z,99.90
2018-07-20T21:26:32.076Z,99.90
2018-07-20T21:29:00.415Z,99.90
2018-07-20T21:31:28.910Z,99.90
2018-07-20T21:33:57.373Z,99.90
2018-07-20T21:36:25.748Z,99.90
2018-07-20T21:38:54.105Z,99.90
2018-07-20T21:41:22.409Z,99.90
2018-07-20T21:43:50.842Z,99.90
2018-07-20T21:46:19.339Z,99.90
2018-07-20T21:48:47.871Z,99.90
2018-07-20T21:51:16.241Z,99.90
2018-07-20T21:53:44.695Z,99.90
2018-07-20T21:56:13.405Z,99.90
2018-07-20T21:58:41.869Z,99.90
2018-07-20T22:01:10.341Z,99.90
2018-07-20T22:03:38.757Z,99.90
2018-07-20T22:06:07.181Z,99.90
2018-07-20T22:08:35.631Z,99.90
2018-07-20T22:11:04.096Z,99.90
2018-07-20T22:13:32.422Z,99.90
2018-07-20T22:16:00.907Z,99.90
2018-07-20T22:18:29.339Z,99.90
2018-07-20T22:20:57.715Z,99.90
2018-07-20T22:23:26.357Z,99.90
2018-07-20T22:25:54.838Z,99.90
2018-07-20T22:28:23.895Z,99.90
2018-07-20T22:30:52.299Z,99.90
2018-07-20T22:33:20.871Z,99.90
2018-07-20T22:35:49.461Z,99.90
2018-07-20T22:38:18.600Z,99.90
2018-07-20T22:40:47.556Z,99.90
2018-07-20T22:43:16.029Z,99.90
2018-07-20T22:45:44.474Z,99.90
2018-07-20T22:48:12.873Z,99.90
2018-07-20T22:50:41.327Z,99.90
2018-07-20T22:53:09.832Z,99.90
2018-07-20T22:55:38.276Z,99.90
2018-07-20T22:58:06.820Z,99.90
2018-07-20T23:00:35.296Z,99.90
2018-07-20T23:03:04.327Z,99.90
2018-07-20T23:05:32.776Z,99.90
2018-07-20T23:08:01.145Z,99.90
2018-07-20T23:10:29.530Z,99.90
2018-07-20T23:12:57.957Z,99.90
2018-07-20T23:15:26.396Z,99.90
2018-07-20T23:17:54.839Z,99.90
2018-07-20T23:20:24.076Z,99.90
2018-07-20T23:25:22.059Z,99.90
2018-07-20T23:27:50.504Z,99.90
2018-07-20T23:30:19.034Z,99.90
2018-07-20T23:32:47.455Z,99.90
2018-07-20T23:35:16.539Z,99.90
2018-07-20T23:37:45.009Z,99.90
2018-07-20T23:40:16.605Z,99.90
2018-07-20T23:42:45.065Z,99.90
2018-07-20T23:45:13.457Z,99.90
2018-07-20T23:47:42.698Z,99.90
2018-07-20T23:50:11.133Z,99.90
2018-07-20T23:52:39.564Z,99.90
2018-07-20T23:55:08.472Z,99.90
2018-07-20T23:57:37.261Z,99.90
